createdAt,value
2019-03-27T00:01:45.993Z,36.48
2019-03-27T00:04:12.179Z,24.37
2019-03-27T00:06:38.432Z,30.30
2019-03-27T00:09:05.233Z,25.12
2019-03-27T00:11:31.787Z,27.77
2019-03-27T00:13:58.045Z,36.98
2019-03-27T00:16:25.187Z,30.90
2019-03-27T00:18:51.991Z,32.65
2019-03-27T00:21:18.235Z,28.52
2019-03-27T00:23:44.495Z,27.75
2019-03-27T00:26:10.758Z,25.20
2019-03-27T00:28:36.887Z,21.68
2019-03-27T00:31:03.293Z,23.70
2019-03-27T00:33:29.679Z,25.25
2019-03-27T00:35:55.893Z,20.70
2019-03-27T00:38:22.022Z,27.77
2019-03-27T00:40:48.675Z,22.60
2019-03-27T00:43:14.835Z,277.02
2019-03-27T00:45:41.022Z,94.70
2019-03-27T00:48:07.218Z,127.78
2019-03-27T00:50:33.388Z,60.38
2019-03-27T00:52:59.839Z,15.08
2019-03-27T00:55:26.005Z,19.98
2019-03-27T00:57:52.124Z,15.95
2019-03-27T01:00:24.457Z,20.70
2019-03-27T01:02:51.612Z,23.77
2019-03-27T01:05:17.972Z,161.55
2019-03-27T01:07:44.242Z,269.07
2019-03-27T01:10:10.659Z,421.40
2019-03-27T01:12:36.775Z,280.65
2019-03-27T01:15:05.802Z,331.45
2019-03-27T01:17:31.963Z,16.57
2019-03-27T01:19:58.184Z,20.43
2019-03-27T01:22:24.301Z,15.60
2019-03-27T01:24:50.539Z,17.30
2019-03-27T01:27:16.691Z,16.15
2019-03-27T01:29:42.897Z,11.40
2019-03-27T01:32:10.136Z,12.43
2019-03-27T01:34:42.277Z,13.25
2019-03-27T01:37:08.439Z,17.70
2019-03-27T01:39:34.610Z,16.07
2019-03-27T01:42:00.722Z,19.15
2019-03-27T01:44:27.085Z,14.63
2019-03-27T01:46:56.115Z,21.50
2019-03-27T01:49:22.538Z,24.70
2019-03-27T01:51:48.772Z,21.40
2019-03-27T01:54:15.167Z,20.00
2019-03-27T01:56:41.384Z,16.00
2019-03-27T01:59:07.848Z,16.57
2019-03-27T02:01:34.239Z,11.83
2019-03-27T02:04:00.444Z,9.95
2019-03-27T02:06:26.820Z,9.88
2019-03-27T02:08:53.025Z,8.13
2019-03-27T02:11:19.204Z,10.35
2019-03-27T02:13:45.373Z,8.83
2019-03-27T02:16:11.524Z,8.35
2019-03-27T02:18:37.827Z,13.83
2019-03-27T02:21:04.083Z,9.35
2019-03-27T02:23:30.358Z,11.48
2019-03-27T02:25:58.275Z,9.38
2019-03-27T02:28:25.140Z,12.35
2019-03-27T02:30:51.372Z,7.60
2019-03-27T02:33:18.082Z,11.10
2019-03-27T02:42:50.448Z,50.92
2019-03-27T02:45:17.401Z,46.70
2019-03-27T02:47:44.045Z,56.70
2019-03-27T02:50:10.696Z,85.05
2019-03-27T02:52:38.083Z,45.60
2019-03-27T02:55:06.222Z,243.00
2019-03-27T02:57:33.766Z,394.45
2019-03-27T03:00:01.322Z,206.63
2019-03-27T03:02:29.641Z,769.88
2019-03-27T03:04:56.923Z,647.13
2019-03-27T03:07:23.698Z,589.85
2019-03-27T03:09:50.671Z,340.60
2019-03-27T03:12:17.266Z,105.10
2019-03-27T03:14:43.686Z,63.28
2019-03-27T03:17:09.856Z,84.95
2019-03-27T03:19:36.243Z,63.63
2019-03-27T03:22:03.675Z,272.10
2019-03-27T03:24:29.904Z,241.57
2019-03-27T03:26:56.157Z,311.48
2019-03-27T03:29:22.456Z,526.02
2019-03-27T03:31:48.627Z,255.65
2019-03-27T03:34:14.832Z,413.00
2019-03-27T03:36:40.972Z,609.73
2019-03-27T03:39:07.288Z,714.42
2019-03-27T03:41:33.588Z,746.15
2019-03-27T03:44:02.125Z,391.55
2019-03-27T03:46:28.317Z,440.88
2019-03-27T03:48:55.542Z,61.55
2019-03-27T03:51:21.764Z,20.55
2019-03-27T03:53:48.294Z,24.35
2019-03-27T03:56:15.046Z,4.47
2019-03-27T03:58:41.721Z,6.30
2019-03-27T04:01:09.909Z,5.22
2019-03-27T04:03:39.818Z,7.62
2019-03-27T04:06:06.184Z,6.35
2019-03-27T04:08:32.302Z,6.87
2019-03-27T04:10:58.602Z,10.78
2019-03-27T04:13:24.928Z,7.45
2019-03-27T04:15:51.373Z,8.65
2019-03-27T04:18:17.534Z,6.65
2019-03-27T04:20:43.765Z,5.03
2019-03-27T04:23:10.019Z,6.37
2019-03-27T04:26:07.116Z,11.65
2019-03-27T04:28:04.284Z,8.58
2019-03-27T04:30:30.603Z,10.45
2019-03-27T04:32:56.759Z,8.88
2019-03-27T04:35:23.053Z,11.18
2019-03-27T04:37:49.287Z,12.68
2019-03-27T04:40:15.386Z,11.70
2019-03-27T04:42:41.608Z,12.05
2019-03-27T04:45:08.809Z,9.63
2019-03-27T04:47:35.028Z,12.50
2019-03-27T04:50:01.200Z,12.45
2019-03-27T04:52:27.524Z,17.67
2019-03-27T04:54:53.734Z,14.58
2019-03-27T04:57:20.240Z,10.78
2019-03-27T04:59:46.774Z,13.43
2019-03-27T05:02:12.970Z,8.90
2019-03-27T05:04:39.326Z,9.93
2019-03-27T05:07:05.617Z,10.93
2019-03-27T05:09:31.922Z,16.67
2019-03-27T05:11:58.285Z,11.97
2019-03-27T05:14:24.560Z,12.37
2019-03-27T05:16:50.634Z,15.43
2019-03-27T05:19:16.853Z,21.42
2019-03-27T05:21:42.948Z,20.37
2019-03-27T05:24:09.215Z,29.42
2019-03-27T05:26:35.487Z,25.88
2019-03-27T05:29:01.750Z,30.52
2019-03-27T05:31:27.840Z,34.88
2019-03-27T05:33:54.710Z,36.13
2019-03-27T05:36:20.809Z,44.53
2019-03-27T05:38:47.035Z,29.18
2019-03-27T05:41:13.129Z,36.33
2019-03-27T05:43:39.370Z,42.40
2019-03-27T05:46:05.547Z,37.38
2019-03-27T05:48:32.115Z,26.20
2019-03-27T05:50:58.268Z,24.45
2019-03-27T05:53:24.426Z,25.17
2019-03-27T05:55:50.587Z,31.68
2019-03-27T05:58:16.775Z,22.82
2019-03-27T06:00:43.003Z,26.70
2019-03-27T06:03:09.132Z,28.60
2019-03-27T06:05:35.346Z,27.65
2019-03-27T06:08:01.526Z,30.88
2019-03-27T06:10:27.793Z,27.45
2019-03-27T06:12:54.065Z,32.45
2019-03-27T06:15:20.323Z,40.05
2019-03-27T06:17:46.529Z,30.48
2019-03-27T06:20:12.832Z,28.50
2019-03-27T06:22:39.051Z,26.02
2019-03-27T06:25:06.167Z,34.25
2019-03-27T06:27:32.396Z,36.20
2019-03-27T06:29:58.607Z,28.75
2019-03-27T06:32:25.206Z,25.00
2019-03-27T06:34:51.331Z,28.52
2019-03-27T06:37:17.528Z,24.27
2019-03-27T06:39:43.692Z,26.52
2019-03-27T06:42:09.984Z,24.92
2019-03-27T06:44:36.190Z,26.25
2019-03-27T06:47:03.294Z,28.10
2019-03-27T06:49:29.523Z,33.85
2019-03-27T06:51:55.675Z,39.95
2019-03-27T06:54:21.919Z,31.37
2019-03-27T06:56:48.138Z,32.25
2019-03-27T06:59:14.232Z,31.02
2019-03-27T07:01:40.598Z,34.33
2019-03-27T07:04:10.834Z,34.27
2019-03-27T07:06:34.814Z,36.35
2019-03-27T07:09:01.024Z,37.70
2019-03-27T07:11:27.107Z,32.03
2019-03-27T07:13:53.336Z,32.13
2019-03-27T07:16:19.429Z,40.90
2019-03-27T07:18:45.646Z,33.05
2019-03-27T07:21:11.838Z,30.20
2019-03-27T07:23:38.055Z,34.60
2019-03-27T07:26:04.223Z,28.83
2019-03-27T07:28:30.387Z,38.50
2019-03-27T07:30:56.531Z,34.35
2019-03-27T07:33:22.718Z,31.70
2019-03-27T07:35:48.822Z,32.78
2019-03-27T07:38:15.007Z,25.70
2019-03-27T07:40:41.150Z,28.70
2019-03-27T07:43:07.312Z,32.50
2019-03-27T07:45:33.702Z,32.38
2019-03-27T07:48:00.098Z,41.83
2019-03-27T07:50:26.262Z,37.83
2019-03-27T07:52:52.445Z,32.15
2019-03-27T07:55:19.970Z,32.35
2019-03-27T07:57:46.428Z,33.92
2019-03-27T08:00:16.323Z,28.83
2019-03-27T08:02:42.546Z,32.98
2019-03-27T08:05:09.862Z,40.98
2019-03-27T08:07:36.082Z,31.40
2019-03-27T08:10:04.788Z,42.48
2019-03-27T08:12:31.055Z,33.58
2019-03-27T08:14:57.362Z,26.52
2019-03-27T08:17:23.600Z,34.53
2019-03-27T08:19:49.706Z,26.90
2019-03-27T08:22:16.904Z,22.73
2019-03-27T08:24:43.060Z,46.48
2019-03-27T08:27:09.271Z,37.38
2019-03-27T08:29:35.432Z,41.85
2019-03-27T08:32:01.911Z,23.73
2019-03-27T08:34:28.208Z,36.55
2019-03-27T08:36:54.493Z,31.93
2019-03-27T08:39:20.718Z,28.80
2019-03-27T08:41:46.827Z,36.33
2019-03-27T08:44:13.018Z,48.90
2019-03-27T08:46:39.397Z,38.60
2019-03-27T08:49:05.601Z,45.08
2019-03-27T08:51:31.699Z,47.15
2019-03-27T08:53:58.019Z,31.07
2019-03-27T08:56:24.199Z,24.82
2019-03-27T08:58:50.502Z,31.97
2019-03-27T09:01:16.832Z,61.98
2019-03-27T09:03:43.084Z,27.90
2019-03-27T09:06:09.345Z,23.95
2019-03-27T09:08:35.585Z,29.95
2019-03-27T09:11:04.492Z,25.88
2019-03-27T09:13:29.782Z,22.58
2019-03-27T09:15:56.139Z,28.35
2019-03-27T09:18:22.408Z,21.50
2019-03-27T09:20:48.657Z,23.73
2019-03-27T09:23:14.982Z,25.95
2019-03-27T09:25:41.257Z,26.50
2019-03-27T09:28:07.715Z,24.55
2019-03-27T09:30:34.082Z,24.63
2019-03-27T09:33:00.366Z,24.52
2019-03-27T09:35:26.671Z,20.70
2019-03-27T09:37:52.886Z,16.93
2019-03-27T09:40:19.161Z,19.00
2019-03-27T09:42:45.383Z,18.12
2019-03-27T09:45:12.469Z,16.77
2019-03-27T09:47:38.775Z,18.42
2019-03-27T09:50:06.186Z,16.48
2019-03-27T09:52:32.387Z,24.82
2019-03-27T09:54:58.606Z,14.75
2019-03-27T09:57:24.810Z,20.77
2019-03-27T09:59:51.000Z,17.15
2019-03-27T10:02:17.161Z,18.57
2019-03-27T10:04:43.393Z,18.82
2019-03-27T10:07:10.497Z,14.10
2019-03-27T10:09:36.723Z,13.25
2019-03-27T10:12:03.085Z,13.45
2019-03-27T10:14:29.249Z,22.07
2019-03-27T10:16:55.403Z,17.85
2019-03-27T10:19:21.604Z,13.98
2019-03-27T10:21:47.979Z,13.45
2019-03-27T10:24:14.141Z,16.90
2019-03-27T10:26:42.668Z,13.38
2019-03-27T10:29:08.361Z,17.77
2019-03-27T10:31:34.505Z,12.55
2019-03-27T10:34:00.746Z,15.93
2019-03-27T10:36:26.857Z,11.95
2019-03-27T10:38:53.104Z,15.93
2019-03-27T10:41:19.224Z,12.40
2019-03-27T10:43:45.456Z,13.98
2019-03-27T10:46:11.610Z,15.45
2019-03-27T10:48:51.532Z,17.20
2019-03-27T10:51:05.918Z,15.20
2019-03-27T10:53:32.162Z,14.70
2019-03-27T10:55:58.307Z,12.88
2019-03-27T10:58:24.485Z,15.25
2019-03-27T11:00:50.619Z,13.22
2019-03-27T11:03:16.835Z,19.57
2019-03-27T11:05:43.012Z,14.40
2019-03-27T11:08:11.487Z,13.55
2019-03-27T11:10:37.323Z,13.13
2019-03-27T11:13:03.552Z,15.98
2019-03-27T11:15:30.820Z,15.10
2019-03-27T11:17:57.061Z,11.73
2019-03-27T11:20:31.019Z,15.28
2019-03-27T11:22:51.382Z,14.10
2019-03-27T11:25:17.524Z,20.30
2019-03-27T11:27:43.866Z,13.40
2019-03-27T11:30:10.366Z,17.55
2019-03-27T11:32:36.597Z,19.30
2019-03-27T11:35:03.310Z,14.30
2019-03-27T11:37:29.538Z,17.52
2019-03-27T11:39:55.686Z,15.55
2019-03-27T11:42:21.829Z,16.62
2019-03-27T11:44:47.993Z,16.02
2019-03-27T11:47:14.157Z,13.28
2019-03-27T11:49:40.327Z,16.37
2019-03-27T11:52:06.481Z,18.20
2019-03-27T11:54:32.670Z,18.23
2019-03-27T11:56:59.208Z,17.12
2019-03-27T11:59:25.604Z,16.77
2019-03-27T12:01:51.736Z,13.72
2019-03-27T12:04:18.002Z,15.98
2019-03-27T12:06:44.319Z,12.28
2019-03-27T12:09:10.581Z,13.83
2019-03-27T12:11:36.797Z,12.47
2019-03-27T12:14:03.202Z,15.75
2019-03-27T12:16:30.543Z,14.38
2019-03-27T12:18:56.698Z,13.58
2019-03-27T12:21:23.057Z,13.40
2019-03-27T12:23:49.227Z,15.63
2019-03-27T12:26:15.398Z,14.30
2019-03-27T12:28:41.568Z,13.85
2019-03-27T12:31:07.932Z,16.17
2019-03-27T12:33:34.019Z,16.70
2019-03-27T12:36:00.454Z,12.28
2019-03-27T12:38:26.564Z,10.38
2019-03-27T12:40:52.813Z,10.10
2019-03-27T12:43:18.978Z,10.45
2019-03-27T12:45:45.145Z,10.45
2019-03-27T12:48:12.014Z,12.43
2019-03-27T12:50:38.348Z,6.30
2019-03-27T12:53:04.649Z,8.68
2019-03-27T12:55:30.978Z,7.60
2019-03-27T12:57:57.286Z,8.15
2019-03-27T13:00:23.808Z,10.20
2019-03-27T13:02:49.903Z,12.68
2019-03-27T13:05:16.186Z,10.38
2019-03-27T13:07:49.792Z,9.33
2019-03-27T13:10:10.797Z,8.20
2019-03-27T13:12:37.234Z,9.25
2019-03-27T13:15:05.338Z,6.67
2019-03-27T13:17:34.223Z,7.90
2019-03-27T13:20:00.826Z,7.90
2019-03-27T13:22:27.075Z,6.37
2019-03-27T13:24:53.334Z,7.78
2019-03-27T13:27:19.611Z,8.78
2019-03-27T13:29:45.827Z,8.55
2019-03-27T13:32:12.075Z,10.10
2019-03-27T13:34:38.264Z,13.15
2019-03-27T13:37:04.411Z,8.18
2019-03-27T13:39:30.643Z,8.20
2019-03-27T13:41:56.807Z,7.45
2019-03-27T13:44:31.398Z,7.45
2019-03-27T13:46:51.082Z,6.85
2019-03-27T13:49:17.475Z,7.65
2019-03-27T13:51:43.670Z,11.60
2019-03-27T13:54:09.919Z,12.37
2019-03-27T13:56:36.120Z,6.17
2019-03-27T13:59:02.552Z,57.70
2019-03-27T14:01:29.756Z,7.72
2019-03-27T14:03:55.986Z,8.60
2019-03-27T14:06:22.088Z,8.38
2019-03-27T14:08:48.315Z,8.35
2019-03-27T14:11:14.403Z,8.55
2019-03-27T14:13:43.235Z,8.73
2019-03-27T14:16:08.598Z,7.20
2019-03-27T14:18:34.815Z,10.45
2019-03-27T14:21:00.902Z,10.70
2019-03-27T14:23:27.122Z,7.20
2019-03-27T14:25:53.324Z,7.80
2019-03-27T14:28:19.506Z,18.07
2019-03-27T14:30:50.849Z,43.30
2019-03-27T14:33:17.694Z,10.20
2019-03-27T14:35:43.936Z,10.13
2019-03-27T14:38:10.179Z,7.75
2019-03-27T14:40:36.326Z,7.25
2019-03-27T14:43:02.547Z,10.18
2019-03-27T14:45:28.747Z,8.13
2019-03-27T14:47:54.955Z,7.75
2019-03-27T14:50:21.087Z,11.28
2019-03-27T14:52:47.818Z,4.97
2019-03-27T14:55:14.121Z,7.10
2019-03-27T14:57:41.247Z,7.65
2019-03-27T15:00:09.270Z,8.65
2019-03-27T15:02:35.534Z,7.97
2019-03-27T15:05:01.738Z,8.43
2019-03-27T15:07:29.071Z,14.07
2019-03-27T15:09:55.322Z,7.70
2019-03-27T15:12:21.641Z,9.65
2019-03-27T15:14:47.835Z,11.45
2019-03-27T15:17:14.061Z,9.15
2019-03-27T15:19:40.268Z,7.42
2019-03-27T15:22:06.657Z,8.60
2019-03-27T15:24:32.752Z,11.65
2019-03-27T15:26:58.961Z,10.30
2019-03-27T15:29:25.064Z,8.83
2019-03-27T15:31:51.287Z,8.20
2019-03-27T15:34:17.484Z,10.55
2019-03-27T15:36:43.760Z,9.13
2019-03-27T15:39:09.993Z,10.13
2019-03-27T15:41:36.578Z,10.93
2019-03-27T15:44:03.025Z,9.78
2019-03-27T15:46:29.221Z,12.23
2019-03-27T15:48:56.431Z,9.73
2019-03-27T15:51:22.538Z,8.13
2019-03-27T15:53:48.744Z,9.50
2019-03-27T15:56:14.853Z,11.03
2019-03-27T15:58:41.162Z,7.60
2019-03-27T16:01:07.686Z,12.05
2019-03-27T16:03:34.007Z,10.80
2019-03-27T16:06:00.569Z,10.63
2019-03-27T16:08:27.198Z,9.90
2019-03-27T16:10:53.389Z,8.10
2019-03-27T16:13:19.877Z,9.33
2019-03-27T16:15:47.424Z,8.58
2019-03-27T16:18:16.752Z,9.00
2019-03-27T16:20:44.058Z,12.43
2019-03-27T16:23:10.453Z,9.93
2019-03-27T16:25:36.633Z,10.80
2019-03-27T16:28:03.121Z,9.33
2019-03-27T16:30:29.676Z,10.93
2019-03-27T16:32:55.905Z,12.75
2019-03-27T16:35:22.010Z,8.50
2019-03-27T16:37:48.311Z,12.80
2019-03-27T16:40:18.298Z,10.68
2019-03-27T16:42:44.665Z,5.87
2019-03-27T16:45:11.788Z,9.35
2019-03-27T16:47:38.224Z,10.25
2019-03-27T16:50:06.249Z,9.60
2019-03-27T16:52:32.643Z,9.28
2019-03-27T16:54:58.955Z,9.63
2019-03-27T16:57:25.203Z,10.08
2019-03-27T16:59:51.694Z,9.78
2019-03-27T17:02:18.063Z,13.32
2019-03-27T17:04:44.182Z,13.80
2019-03-27T17:07:10.446Z,12.00
2019-03-27T17:09:36.638Z,12.82
2019-03-27T17:12:02.995Z,12.13
2019-03-27T17:14:29.212Z,12.33
2019-03-27T17:16:57.437Z,9.43
2019-03-27T17:19:24.826Z,13.32
2019-03-27T17:21:51.209Z,11.22
2019-03-27T17:24:17.830Z,12.68
2019-03-27T17:26:44.031Z,10.72
2019-03-27T17:29:10.235Z,10.98
2019-03-27T17:31:36.546Z,11.38
2019-03-27T17:34:02.978Z,9.50
2019-03-27T17:36:29.777Z,10.35
2019-03-27T17:38:55.902Z,8.85
2019-03-27T17:41:22.219Z,11.10
2019-03-27T17:43:48.865Z,8.93
2019-03-27T17:46:15.152Z,10.15
2019-03-27T17:48:41.355Z,13.80
2019-03-27T17:51:07.600Z,11.33
2019-03-27T17:53:33.834Z,12.03
2019-03-27T17:56:00.169Z,11.85
2019-03-27T17:58:26.657Z,9.60
2019-03-27T18:00:52.981Z,13.08
2019-03-27T18:03:19.304Z,9.43
2019-03-27T18:05:45.476Z,15.25
2019-03-27T18:08:11.680Z,13.15
2019-03-27T18:10:37.802Z,9.93
2019-03-27T18:13:04.258Z,10.58
2019-03-27T18:15:31.812Z,11.05
2019-03-27T18:17:58.029Z,11.03
2019-03-27T18:20:24.716Z,10.28
2019-03-27T18:22:50.968Z,11.03
2019-03-27T18:25:17.121Z,11.10
2019-03-27T18:27:43.324Z,11.38
2019-03-27T18:30:09.845Z,9.90
2019-03-27T18:32:36.047Z,12.85
2019-03-27T18:35:03.728Z,16.32
2019-03-27T18:37:30.037Z,13.68
2019-03-27T18:39:56.296Z,10.25
2019-03-27T18:42:22.557Z,13.08
2019-03-27T18:44:48.677Z,13.00
2019-03-27T18:47:14.906Z,12.18
2019-03-27T18:49:41.073Z,12.70
2019-03-27T18:52:07.414Z,13.13
2019-03-27T18:54:33.702Z,12.55
2019-03-27T18:56:59.888Z,14.00
2019-03-27T18:59:26.163Z,13.10
2019-03-27T19:01:52.372Z,10.58
2019-03-27T19:04:19.521Z,10.15
2019-03-27T19:06:45.814Z,11.83
2019-03-27T19:09:11.982Z,12.37
2019-03-27T19:11:38.374Z,10.48
2019-03-27T19:14:04.704Z,12.58
2019-03-27T19:16:30.956Z,9.70
2019-03-27T19:18:57.051Z,10.72
2019-03-27T19:21:23.319Z,9.30
2019-03-27T19:23:49.562Z,11.75
2019-03-27T19:26:15.732Z,11.88
2019-03-27T19:28:42.016Z,15.45
2019-03-27T19:31:08.293Z,12.28
2019-03-27T19:33:34.586Z,10.88
2019-03-27T19:36:00.957Z,11.75
2019-03-27T19:38:27.148Z,12.00
2019-03-27T19:40:53.318Z,13.88
2019-03-27T19:43:19.430Z,14.45
2019-03-27T19:45:45.770Z,10.40
2019-03-27T19:48:11.931Z,12.20
2019-03-27T19:50:38.229Z,20.50
2019-03-27T19:53:04.674Z,27.20
2019-03-27T19:55:30.847Z,15.60
2019-03-27T19:57:57.271Z,9.85
2019-03-27T20:00:24.021Z,13.25
2019-03-27T20:02:50.459Z,10.53
2019-03-27T20:05:16.839Z,15.05
2019-03-27T20:07:43.383Z,14.28
2019-03-27T20:10:10.014Z,11.25
2019-03-27T20:12:36.218Z,12.33
2019-03-27T20:15:11.940Z,13.72
2019-03-27T20:17:33.247Z,10.05
2019-03-27T20:19:59.525Z,14.43
2019-03-27T20:22:25.761Z,15.23
2019-03-27T20:24:51.968Z,15.63
2019-03-27T20:27:18.217Z,12.03
2019-03-27T20:29:46.659Z,19.32
2019-03-27T20:32:13.060Z,10.38
2019-03-27T20:34:39.384Z,14.98
2019-03-27T20:37:05.510Z,19.23
2019-03-27T20:39:31.698Z,12.78
2019-03-27T20:41:57.900Z,14.63
2019-03-27T20:44:24.256Z,15.25
2019-03-27T20:46:50.392Z,14.98
2019-03-27T20:49:16.607Z,13.83
2019-03-27T20:51:42.796Z,12.98
2019-03-27T20:54:09.066Z,13.78
2019-03-27T20:56:35.450Z,14.00
2019-03-27T20:59:01.910Z,15.75
2019-03-27T21:01:28.169Z,13.20
2019-03-27T21:03:54.576Z,15.35
2019-03-27T21:06:20.861Z,16.50
2019-03-27T21:08:47.102Z,14.75
2019-03-27T21:11:13.240Z,14.58
2019-03-27T21:13:41.169Z,14.43
2019-03-27T21:16:07.463Z,12.60
2019-03-27T21:18:33.783Z,13.93
2019-03-27T21:21:00.089Z,12.95
2019-03-27T21:23:26.300Z,12.95
2019-03-27T21:25:52.511Z,15.03
2019-03-27T21:28:18.749Z,13.15
2019-03-27T21:30:44.857Z,11.75
2019-03-27T21:33:11.074Z,10.72
2019-03-27T21:35:37.302Z,12.88
2019-03-27T21:38:03.622Z,14.05
2019-03-27T21:40:29.879Z,17.25
2019-03-27T21:42:56.368Z,18.60
2019-03-27T21:45:22.685Z,16.00
2019-03-27T21:47:49.015Z,17.42
2019-03-27T21:50:15.139Z,15.40
2019-03-27T21:52:41.376Z,12.43
2019-03-27T21:55:21.556Z,13.90
2019-03-27T21:57:35.912Z,15.90
2019-03-27T22:00:03.827Z,15.18
2019-03-27T22:02:30.161Z,13.53
2019-03-27T22:04:56.386Z,11.60
2019-03-27T22:07:22.587Z,14.98
2019-03-27T22:09:48.780Z,12.82
2019-03-27T22:12:14.874Z,14.53
2019-03-27T22:14:41.391Z,17.20
2019-03-27T22:17:07.514Z,13.40
2019-03-27T22:19:33.746Z,10.50
2019-03-27T22:21:59.939Z,17.90
2019-03-27T22:24:26.237Z,16.25
2019-03-27T22:26:52.520Z,15.43
2019-03-27T22:29:18.748Z,16.45
2019-03-27T22:31:44.864Z,15.60
2019-03-27T22:34:11.186Z,13.72
2019-03-27T22:36:37.289Z,19.50
2019-03-27T22:39:06.429Z,17.40
2019-03-27T22:41:32.724Z,16.32
2019-03-27T22:43:58.985Z,23.02
2019-03-27T22:46:25.224Z,15.45
2019-03-27T22:48:51.439Z,18.00
2019-03-27T22:51:17.645Z,21.42
2019-03-27T22:53:43.732Z,15.80
2019-03-27T22:56:09.982Z,36.65
2019-03-27T22:58:36.072Z,23.65
2019-03-27T23:01:02.489Z,20.25
2019-03-27T23:03:29.294Z,19.62
2019-03-27T23:05:55.499Z,18.95
2019-03-27T23:08:21.583Z,24.27
2019-03-27T23:10:47.929Z,20.15
2019-03-27T23:13:15.939Z,21.62
2019-03-27T23:15:42.180Z,21.55
2019-03-27T23:18:08.282Z,20.70
2019-03-27T23:20:34.558Z,14.75
2019-03-27T23:23:00.649Z,16.82
2019-03-27T23:25:26.867Z,19.62
2019-03-27T23:27:53.016Z,18.00
2019-03-27T23:30:19.327Z,15.83
2019-03-27T23:32:45.512Z,18.40
2019-03-27T23:35:11.956Z,20.43
2019-03-27T23:37:38.160Z,22.37
2019-03-27T23:40:05.393Z,18.67
2019-03-27T23:42:31.657Z,17.05
2019-03-27T23:44:57.856Z,16.07
2019-03-27T23:47:23.960Z,14.68
2019-03-27T23:49:50.178Z,13.65
2019-03-27T23:52:16.285Z,15.23
2019-03-27T23:54:42.484Z,14.65
2019-03-27T23:57:08.648Z,22.20
2019-03-27T23:59:34.813Z,18.02
